RJBBRCSS

Guest
Details From RJBB - Kansai Intl
To RCSS - Sungshan
Flight Number -
Tags Generated
Created
Modified
Stats Distance 908 nm / 1,681 km
Max Altitude 0 ft / 0 m
Waypoints 4
Social Downloads 0
Likes 0
Share VATSIM

Download

Looking for another format? Having issues loading an existing format? Contact us
Advertisement - Login to hide

Notes

Generated

Route

RJBB NHT28 SG RCSS

ID Type Via Altitude Latitude Longitude Leg Dist Tot Dist Heading (true) Name
O RJBB APT - 0 ft / 0 m 34.41738˚ 135.22928˚ - 0 nm - -
NHT28 FIX - 0 ft / 0 m 32.09324˚ 131.39676˚ 237 nm 237 nm 235° / 233° -
SG NDB - 0 ft / 0 m 25.07042˚ 121.52958˚ 669 nm 906 nm 233° / 229° SG NDB
O RCSS APT - 0 ft / 0 m 25.07005˚ 121.53962˚ 0 nm 907 nm 92° / 92° -

Altitude Profile

Advertisement - Login to hide

Weather


0- 5 10 15 20 25 30 35+ Temperature / ° C

Clouds and Precipitation
Forecast for 2018-05-24 18:00 UTC. Updated 40 minutes ago

Ground ~20,000 ft ~40,000 ft Winds

RJBB

Details ICAO RJBB (KIX)
Name KANSAI INTL
Region Japan
Timezone Asia/Tokyo (UTC+9.0)
Stats Elevation 26 ft / 8 m (AMSL)
Location 34.433619° 135.233598°
Runways 2
Magnetic Variation 7.611° W

METAR

RJBB 241800Z AUTO 17004KT 9999 NSC 18/14 Q1008 NOSIG

Decode

TAF

TAF RJBB 241705Z 2418/2600 26004KT CAVOK

Decode

Departure Runways

ID Width Length Bearing (true) Bearing (mag) Surface Threshold Offset Overrun Length
06L 200 ft / 61 m 13,121 ft / 3,999 m 50.86° 58.47° Asphalt 0 ft / 0 m 200 ft / 61 m
06R 200 ft / 61 m 11,481 ft / 3,499 m 50.86° 58.47° Asphalt 0 ft / 0 m 200 ft / 61 m
24L 200 ft / 61 m 11,481 ft / 3,499 m 230.88° 238.49° Asphalt 0 ft / 0 m 200 ft / 61 m
24R 200 ft / 61 m 13,121 ft / 3,999 m 230.88° 238.49° Asphalt 0 ft / 0 m 200 ft / 61 m

RCSS

Details ICAO RCSS (TSA)
Name Sungshan
Region Republic of China (Taiwan)
Timezone Asia/Taipei (UTC+8.0)
Stats Elevation 18 ft / 5 m (AMSL)
Location 25.069586° 121.552570°
Runways 1
Magnetic Variation 4.519° W

METAR

RCSS 241700Z VRB01KT 9999 FEW020 26/23 Q1008 NOSIG RMK A2979

Decode

TAF

TAF RCSS 241700Z 2418/2518 10005KT 9999 FEW025 BECMG 2500/2502 28005KT

Decode

Destination Runways

ID Width Length Bearing (true) Bearing (mag) Surface Threshold Offset Overrun Length
10 197 ft / 60 m 8,566 ft / 2,611 m 92.26° 96.78° Asphalt 0 ft / 0 m 197 ft / 60 m
28 197 ft / 60 m 8,566 ft / 2,611 m 272.27° 276.79° Asphalt 0 ft / 0 m 525 ft / 160 m

Approach Navaids

Runway Type Ident Frequency Range Bearing (true) Bearing (mag) Slope Elevation
10 Localiser ITSG 108.90 MHz 18 nm / 33 km 92.23° 96.75° - 13 ft / 4 m (AMSL)
10 Glidescope ITSG 108.90 MHz 10 nm / 19 km 92.27° 96.78° 3.00° 12 ft / 4 m (AMSL)
10 DME ITSG 108.90 MHz 18 nm / 33 km - - - 18 ft / 5 m (AMSL)
28 Localiser ITLU 108.10 MHz 18 nm / 33 km 264.28° 268.80° - 18 ft / 5 m (AMSL)
28 DME ITLU 108.10 MHz 18 nm / 33 km - - - 18 ft / 5 m (AMSL)

Popular Alternatives